KPUW/PUW METAR and TAF weather

Enter ICAO airport designator
Station Type Date Time Source
KPUW METAR 2022/05/24 10:53 UTC NOAA

KPUW 241053Z AUTO 00000KT 10SM BKN075 04/03 A3006 RMK AO2 SLP182 T00440033


Station Type Date Time Source
KPUW Decoded METAR 2022/05/24 10:53 UTC NOAA

PULLMAN/MOSCOW RGNL AIRPORT , WA, United States (KPUW) 46-45N 117-07W 773M
May 24, 2022 - 06:53 AM EDT / 2022.05.24 1053 UTC
Wind: Calm:0
Visibility: 10 mile(s):0
Sky conditions: mostly cloudy
Temperature: 39.9 F (4.4 C)
Dew Point: 37.9 F (3.3 C)
Relative Humidity: 92%
Pressure (altimeter): 30.06 in. Hg (1017 hPa)
ob: KPUW 241053Z AUTO 00000KT 10SM BKN075 04/03 A3006 RMK AO2 SLP182 T00440033
cycle: 11

Station Type Date Time Source
KPUW TAF 2022/05/24 06:22 UTC NOAA

TAF KPUW 240520Z 2406/2506 02009KT P6SM VCTS SCT050CB BKN080
FM240700 05005KT P6SM SCT080
FM241100 VRB04KT P6SM SCT015
FM241500 24006KT P6SM SCT025 BKN200
FM242100 26005KT P6SM SCT045 BKN140
FM250300 VRB03KT P6SM BKN090

Example: see airport list